<?xml version="1.0" encoding="UTF-8" standalone="no" ?>
<gpx xmlns="http://www.topografix.com/GPX/1/1" xmlns:xsi="http://www.w3.org/2001/XMLSchema-instance" xsi:schemaLocation="http://www.topografix.com/GPX/1/1 http://www.topografix.com/GPX/1/1/gpx.xsd" version="1.1" creator="VisuGPX - https://www.visugpx.com">
  <metadata>
    <name>ChapelleE_Vaillantiere_8-12km</name>
    <desc><![CDATA[gnerando idor: 8396171_8809195_10803642]]></desc>
  </metadata>
  <trk>
    <name><![CDATA[ChapelleE_VaillantiereLaBrosse_12km-7277382]]></name>
    <extensions>
      <line xmlns="http://www.topografix.com/GPX/gpx_style/0/2">
        <color>00FFFF</color>
        <width>4</width>
      </line>
    </extensions>
    <trkseg>
      <trkpt lat="47.33696" lon="-1.57395">
        <ele>41</ele>
        <time>2023-11-03T12:43:28Z</time>
      </trkpt>
      <trkpt lat="47.33626" lon="-1.57284">
        <ele>38</ele>
        <time>2023-11-03T12:45:45Z</time>
      </trkpt>
      <trkpt lat="47.3337" lon="-1.57036">
        <ele>33</ele>
        <time>2023-11-03T12:52:34Z</time>
      </trkpt>
      <trkpt lat="47.33181" lon="-1.57134">
        <ele>29</ele>
        <time>2023-11-03T12:57:01Z</time>
      </trkpt>
      <trkpt lat="47.32576" lon="-1.57456">
        <ele>29</ele>
        <time>2023-11-03T13:11:19Z</time>
      </trkpt>
      <trkpt lat="47.32754" lon="-1.5789">
        <ele>35</ele>
        <time>2023-11-03T13:18:58Z</time>
      </trkpt>
      <trkpt lat="47.32719" lon="-1.57958">
        <ele>38</ele>
        <time>2023-11-03T13:20:15Z</time>
      </trkpt>
      <trkpt lat="47.32748" lon="-1.58061">
        <ele>41</ele>
        <time>2023-11-03T13:21:56Z</time>
      </trkpt>
      <trkpt lat="47.32896" lon="-1.5816">
        <ele>33</ele>
        <time>2023-11-03T13:25:33Z</time>
      </trkpt>
      <trkpt lat="47.33036" lon="-1.58211">
        <ele>35</ele>
        <time>2023-11-03T13:28:46Z</time>
      </trkpt>
      <trkpt lat="47.33181" lon="-1.58525">
        <ele>42</ele>
        <time>2023-11-03T13:34:29Z</time>
      </trkpt>
      <trkpt lat="47.33638" lon="-1.59477">
        <ele>55</ele>
        <time>2023-11-03T13:52:04Z</time>
      </trkpt>
      <trkpt lat="47.34315" lon="-1.58477">
        <ele>45</ele>
        <time>2023-11-03T14:13:23Z</time>
      </trkpt>
      <trkpt lat="47.34426" lon="-1.58619">
        <ele>43</ele>
        <time>2023-11-03T14:16:39Z</time>
      </trkpt>
      <trkpt lat="47.34199" lon="-1.59048">
        <ele>49</ele>
        <time>2023-11-03T14:24:51Z</time>
      </trkpt>
      <trkpt lat="47.34789" lon="-1.5943">
        <ele>29</ele>
        <time>2023-11-03T14:39:11Z</time>
      </trkpt>
      <trkpt lat="47.34914" lon="-1.59409">
        <ele>25</ele>
        <time>2023-11-03T14:41:59Z</time>
      </trkpt>
      <trkpt lat="47.34967" lon="-1.59301">
        <ele>28</ele>
        <time>2023-11-03T14:43:59Z</time>
      </trkpt>
      <trkpt lat="47.3508" lon="-1.59422">
        <ele>20</ele>
        <time>2023-11-03T14:47:05Z</time>
      </trkpt>
      <trkpt lat="47.3506" lon="-1.59228">
        <ele>24</ele>
        <time>2023-11-03T14:50:03Z</time>
      </trkpt>
      <trkpt lat="47.3501" lon="-1.59211">
        <ele>28</ele>
        <time>2023-11-03T14:51:11Z</time>
      </trkpt>
      <trkpt lat="47.34984" lon="-1.59125">
        <ele>33</ele>
        <time>2023-11-03T14:52:36Z</time>
      </trkpt>
      <trkpt lat="47.35019" lon="-1.59113">
        <ele>30</ele>
        <time>2023-11-03T14:53:24Z</time>
      </trkpt>
      <trkpt lat="47.35054" lon="-1.59181">
        <ele>25</ele>
        <time>2023-11-03T14:54:42Z</time>
      </trkpt>
      <trkpt lat="47.35089" lon="-1.59108">
        <ele>24</ele>
        <time>2023-11-03T14:56:02Z</time>
      </trkpt>
      <trkpt lat="47.35013" lon="-1.58739">
        <ele>33</ele>
        <time>2023-11-03T15:01:51Z</time>
      </trkpt>
      <trkpt lat="47.34853" lon="-1.58508">
        <ele>30</ele>
        <time>2023-11-03T15:06:50Z</time>
      </trkpt>
      <trkpt lat="47.34786" lon="-1.58443">
        <ele>33</ele>
        <time>2023-11-03T15:08:37Z</time>
      </trkpt>
      <trkpt lat="47.34693" lon="-1.58134">
        <ele>42</ele>
        <time>2023-11-03T15:13:42Z</time>
      </trkpt>
      <trkpt lat="47.346" lon="-1.58121">
        <ele>44</ele>
        <time>2023-11-03T15:15:47Z</time>
      </trkpt>
      <trkpt lat="47.34644" lon="-1.58005">
        <ele>43</ele>
        <time>2023-11-03T15:17:47Z</time>
      </trkpt>
      <trkpt lat="47.34827" lon="-1.57744">
        <ele>39</ele>
        <time>2023-11-03T15:23:27Z</time>
      </trkpt>
      <trkpt lat="47.34958" lon="-1.57529">
        <ele>34</ele>
        <time>2023-11-03T15:27:48Z</time>
      </trkpt>
      <trkpt lat="47.35031" lon="-1.57478">
        <ele>26</ele>
        <time>2023-11-03T15:29:36Z</time>
      </trkpt>
      <trkpt lat="47.35223" lon="-1.57417">
        <ele>14</ele>
        <time>2023-11-03T15:33:58Z</time>
      </trkpt>
      <trkpt lat="47.35135" lon="-1.57289">
        <ele>20</ele>
        <time>2023-11-03T15:36:43Z</time>
      </trkpt>
      <trkpt lat="47.35199" lon="-1.57113">
        <ele>16</ele>
        <time>2023-11-03T15:39:44Z</time>
      </trkpt>
      <trkpt lat="47.35138" lon="-1.56714">
        <ele>16</ele>
        <time>2023-11-03T15:45:54Z</time>
      </trkpt>
      <trkpt lat="47.34874" lon="-1.56593">
        <ele>20</ele>
        <time>2023-11-03T15:52:02Z</time>
      </trkpt>
      <trkpt lat="47.34789" lon="-1.56559">
        <ele>18</ele>
        <time>2023-11-03T15:54:00Z</time>
      </trkpt>
      <trkpt lat="47.34658" lon="-1.56581">
        <ele>18</ele>
        <time>2023-11-03T15:56:56Z</time>
      </trkpt>
      <trkpt lat="47.34644" lon="-1.56688">
        <ele>23</ele>
        <time>2023-11-03T15:58:34Z</time>
      </trkpt>
      <trkpt lat="47.34711" lon="-1.56804">
        <ele>30</ele>
        <time>2023-11-03T16:00:52Z</time>
      </trkpt>
      <trkpt lat="47.34789" lon="-1.57203">
        <ele>38</ele>
        <time>2023-11-03T16:07:08Z</time>
      </trkpt>
      <trkpt lat="47.34833" lon="-1.57246">
        <ele>40</ele>
        <time>2023-11-03T16:08:18Z</time>
      </trkpt>
      <trkpt lat="47.3474" lon="-1.57516">
        <ele>38</ele>
        <time>2023-11-03T16:12:52Z</time>
      </trkpt>
      <trkpt lat="47.34722" lon="-1.57606">
        <ele>38</ele>
        <time>2023-11-03T16:14:17Z</time>
      </trkpt>
      <trkpt lat="47.34664" lon="-1.57602">
        <ele>36</ele>
        <time>2023-11-03T16:15:34Z</time>
      </trkpt>
      <trkpt lat="47.34455" lon="-1.57675">
        <ele>41</ele>
        <time>2023-11-03T16:20:21Z</time>
      </trkpt>
      <trkpt lat="47.34278" lon="-1.57636">
        <ele>34</ele>
        <time>2023-11-03T16:24:20Z</time>
      </trkpt>
      <trkpt lat="47.34083" lon="-1.57512">
        <ele>35</ele>
        <time>2023-11-03T16:29:03Z</time>
      </trkpt>
      <trkpt lat="47.34089" lon="-1.5752">
        <ele>35</ele>
        <time>2023-11-03T16:29:14Z</time>
      </trkpt>
      <trkpt lat="47.34036" lon="-1.57413">
        <ele>34</ele>
        <time>2023-11-03T16:31:14Z</time>
      </trkpt>
      <trkpt lat="47.33961" lon="-1.57409">
        <ele>37</ele>
        <time>2023-11-03T16:32:54Z</time>
      </trkpt>
      <trkpt lat="47.33868" lon="-1.57357">
        <ele>38</ele>
        <time>2023-11-03T16:35:07Z</time>
      </trkpt>
      <trkpt lat="47.33824" lon="-1.57422">
        <ele>41</ele>
        <time>2023-11-03T16:36:30Z</time>
      </trkpt>
      <trkpt lat="47.33714" lon="-1.57437">
        <ele>42</ele>
        <time>2023-11-03T16:38:57Z</time>
      </trkpt>
      <trkpt lat="47.33696" lon="-1.57397">
        <ele>41</ele>
        <time>2023-11-03T16:39:41Z</time>
      </trkpt>
    </trkseg>
  </trk>
</gpx>